Time;durP1;ratioP1;P1;durP2;ratioP2;P2;SDS_P1;SDS_P2;PMS_P1;PMS_P2;Temp;Humidity;BMP_temperature;BMP_pressure;BME280_temperature;BME280_humidity;BME280_pressure;Samples;Min_cycle;Max_cycle;Signal;HPM_P1;HPM_P2
2020/12/07 00:00:45;;;;;;;34.63;18.77;;;;;;;26.07;31.89;94648.03;4959472;28;20039;-34
2020/12/07 00:03:11;;;;;;;31.30;17.02;;;;;;;26.21;31.95;94669.59;4957909;28;20046;-34
2020/12/07 00:05:37;;;;;;;33.47;18.00;;;;;;;26.20;31.90;94667.97;4964469;28;20094;-34
2020/12/07 00:08:03;;;;;;;32.25;17.98;;;;;;;26.19;31.84;94651.38;4965919;28;20034;-34
2020/12/07 00:10:29;;;;;;;33.67;17.95;;;;;;;26.20;31.95;94662.69;4954979;28;20200;-33
2020/12/07 00:12:55;;;;;;;26.88;17.40;;;;;;;26.21;31.81;94669.59;4955475;28;20043;-34
2020/12/07 00:15:21;;;;;;;31.77;17.02;;;;;;;26.20;31.71;94663.50;4964966;28;20103;-34
2020/12/07 00:17:46;;;;;;;29.33;17.40;;;;;;;26.19;31.81;94656.63;4961084;28;20038;-35
2020/12/07 00:20:12;;;;;;;30.73;16.55;;;;;;;26.20;31.78;94657.44;4965959;28;20469;-35
2020/12/07 00:22:38;;;;;;;33.88;16.77;;;;;;;26.18;31.83;94648.88;4958238;28;20081;-34
2020/12/07 00:25:05;;;;;;;27.52;16.15;;;;;;;26.18;31.87;94649.72;4966750;28;20054;-35
2020/12/07 00:27:32;;;;;;;25.17;15.73;;;;;;;26.19;31.74;94650.53;4957454;28;20046;-34
2020/12/07 00:29:58;;;;;;;28.90;16.60;;;;;;;26.18;31.81;94638.38;4965484;28;20046;-34
2020/12/07 00:32:24;;;;;;;26.55;16.13;;;;;;;26.17;31.84;94640.19;4957609;28;20046;-35
2020/12/07 00:34:50;;;;;;;27.00;16.45;;;;;;;26.18;31.83;94638.38;4960167;28;20404;-33
2020/12/07 00:37:17;;;;;;;27.08;15.00;;;;;;;26.06;31.68;94630.63;4963791;28;20708;-35
2020/12/07 00:39:43;;;;;;;25.27;15.40;;;;;;;26.17;31.95;94655.09;4965800;28;20642;-33
2020/12/07 00:42:09;;;;;;;28.58;16.00;;;;;;;26.17;31.66;94657.72;4963762;28;22361;-34
2020/12/07 00:44:38;;;;;;;27.15;15.27;;;;;;;26.18;31.74;94651.50;4955684;28;20122;-35
2020/12/07 00:47:04;;;;;;;29.27;15.75;;;;;;;26.17;31.66;94650.69;4961235;28;20042;-35
2020/12/07 00:49:30;;;;;;;28.85;15.48;;;;;;;26.17;31.83;94652.47;4964312;28;20043;-35
2020/12/07 00:51:56;;;;;;;26.00;15.80;;;;;;;26.18;31.70;94649.72;4959576;28;20038;-34
2020/12/07 00:54:22;;;;;;;30.90;16.75;;;;;;;26.17;31.78;94642.81;4956758;28;20432;-35
2020/12/07 00:56:52;;;;;;;26.33;14.98;;;;;;;26.18;31.66;94643.63;4974137;28;20390;-34
2020/12/07 00:59:18;;;;;;;29.52;16.63;;;;;;;26.16;31.87;94633.25;4961901;28;20038;-34
2020/12/07 01:01:44;;;;;;;28.08;15.00;;;;;;;26.16;31.61;94635.88;4953718;28;20035;-34
2020/12/07 01:04:10;;;;;;;27.55;15.40;;;;;;;26.17;31.70;94652.47;4958603;28;20089;-35
2020/12/07 01:06:35;;;;;;;24.02;14.45;;;;;;;26.17;31.81;94655.09;4945719;28;20050;-33
2020/12/07 01:09:01;;;;;;;26.88;15.27;;;;;;;26.16;31.70;94662.13;4960311;28;20043;-35
2020/12/07 01:11:27;;;;;;;23.98;14.15;;;;;;;26.18;31.67;94675.13;4959057;28;20104;-35
2020/12/07 01:13:53;;;;;;;27.63;14.18;;;;;;;26.17;31.53;94676.09;4958449;28;20050;-34
2020/12/07 01:16:20;;;;;;;20.65;14.10;;;;;;;26.17;31.55;94679.56;4958715;28;20043;-34
2020/12/07 01:18:46;;;;;;;25.33;14.00;;;;;;;26.16;31.56;94688.38;4959931;28;20125;-34
2020/12/07 01:21:12;;;;;;;28.30;14.90;;;;;;;26.16;31.68;94684.94;4955431;28;20051;-34
2020/12/07 01:23:40;;;;;;;26.60;14.27;;;;;;;26.15;31.51;94673.59;4962762;28;20039;-36
2020/12/07 01:26:05;;;;;;;26.00;14.80;;;;;;;26.15;31.56;94670.97;4955744;28;20046;-34
2020/12/07 01:28:32;;;;;;;20.02;13.15;;;;;;;26.14;31.67;94671.09;4958367;28;20034;-35
2020/12/07 01:30:58;;;;;;;24.88;14.13;;;;;;;26.15;31.55;94672.75;4953340;28;20037;-34
2020/12/07 01:33:24;;;;;;;22.30;14.30;;;;;;;26.14;31.69;94681.59;4960469;28;20047;-34
2020/12/07 01:35:50;;;;;;;22.50;13.70;;;;;;;26.12;31.45;94681.72;4959347;28;20043;-35
2020/12/07 01:38:16;;;;;;;22.55;13.85;;;;;;;26.12;31.67;94670.41;4957541;28;20070;-35
2020/12/07 01:40:41;;;;;;;22.35;14.00;;;;;;;26.13;31.64;94666.81;4956552;28;20097;-34
2020/12/07 01:43:06;;;;;;;20.05;13.18;;;;;;;26.12;31.55;94675.66;4963994;28;20551;-34
2020/12/07 01:45:32;;;;;;;20.73;13.32;;;;;;;26.12;31.57;94680.91;4954661;28;20042;-34
2020/12/07 01:47:57;;;;;;;20.98;13.65;;;;;;;26.11;31.59;94682.72;4960653;28;20537;-37
2020/12/07 01:50:23;;;;;;;22.85;13.02;;;;;;;26.08;31.50;94680.34;4962769;28;20038;-37
2020/12/07 01:52:49;;;;;;;20.95;12.43;;;;;;;26.10;31.50;94675.81;4973491;28;20071;-36
2020/12/07 01:55:15;;;;;;;24.33;13.25;;;;;;;26.10;31.38;94668.75;4942889;28;20519;-34
2020/12/07 01:57:40;;;;;;;21.73;12.98;;;;;;;26.09;31.44;94661.84;4955861;28;20079;-35
2020/12/07 02:00:06;;;;;;;19.95;12.45;;;;;;;26.09;31.47;94661.84;4964849;28;20043;-35
2020/12/07 02:02:32;;;;;;;20.42;13.07;;;;;;;26.08;31.42;94668.06;4960829;28;20047;-34
2020/12/07 02:04:57;;;;;;;21.90;13.20;;;;;;;26.10;31.59;94673.19;4966215;28;20046;-34
2020/12/07 02:07:24;;;;;;;20.65;12.48;;;;;;;26.09;31.53;94682.84;4957126;28;20077;-35
2020/12/07 02:09:49;;;;;;;21.05;12.10;;;;;;;26.10;31.53;94689.75;4961065;28;20039;-34
2020/12/07 02:12:15;;;;;;;23.13;12.82;;;;;;;26.08;31.48;94686.44;4965520;28;20121;-34
2020/12/07 02:14:40;;;;;;;18.23;12.27;;;;;;;26.10;31.52;94694.19;4957360;28;20063;-35
2020/12/07 02:17:06;;;;;;;18.17;12.30;;;;;;;26.08;31.27;94696.09;4962077;28;20045;-34
2020/12/07 02:19:33;;;;;;;20.70;12.65;;;;;;;26.09;31.46;94703.84;4971116;28;20073;-35
2020/12/07 02:21:58;;;;;;;21.77;12.13;;;;;;;26.09;31.25;94703.84;4958907;28;20050;-35
2020/12/07 02:24:24;;;;;;;19.25;11.63;;;;;;;26.10;31.53;94708.13;4956427;28;20751;-34
2020/12/07 02:26:49;;;;;;;19.08;11.88;;;;;;;26.08;31.41;94710.06;4954966;28;20043;-34
2020/12/07 02:29:15;;;;;;;19.13;12.02;;;;;;;26.08;31.44;94707.44;4958810;28;20031;-34
2020/12/07 02:31:40;;;;;;;19.60;12.63;;;;;;;26.08;31.41;94710.06;4957276;28;20649;-36
2020/12/07 02:34:06;;;;;;;17.77;12.13;;;;;;;26.08;31.44;94706.59;4956852;28;20677;-35
2020/12/07 02:36:31;;;;;;;19.60;11.88;;;;;;;26.08;31.38;94722.34;4957257;28;20046;-37
2020/12/07 02:38:57;;;;;;;19.13;12.02;;;;;;;26.07;31.42;94729.41;4960671;28;20054;-34
2020/12/07 02:41:23;;;;;;;19.27;10.88;;;;;;;26.07;31.49;94732.03;4953304;28;20047;-35
2020/12/07 02:43:49;;;;;;;18.83;11.60;;;;;;;26.06;31.48;94733.00;4961780;28;20045;-34
2020/12/07 02:46:14;;;;;;;20.48;11.95;;;;;;;26.06;31.38;94738.25;4959673;28;20039;-35
2020/12/07 02:48:40;;;;;;;17.23;11.10;;;;;;;26.07;31.47;94746.94;4959402;28;20097;-34
2020/12/07 02:51:07;;;;;;;16.83;11.65;;;;;;;26.05;31.41;94739.19;4959702;28;20043;-34
2020/12/07 02:53:32;;;;;;;17.23;11.35;;;;;;;26.06;31.47;94746.13;4962755;28;20059;-34
2020/12/07 02:55:58;;;;;;;22.05;11.65;;;;;;;26.06;31.22;94740.88;4952450;28;20050;-35
2020/12/07 02:58:24;;;;;;;17.88;11.88;;;;;;;26.04;31.62;94736.69;4958430;28;20049;-34
2020/12/07 03:00:50;;;;;;;15.90;11.25;;;;;;;26.04;31.51;94742.78;4954829;28;20054;-36
2020/12/07 03:03:16;;;;;;;19.58;11.32;;;;;;;26.04;31.54;94740.16;4956489;28;20077;-34
2020/12/07 03:05:42;;;;;;;15.95;11.05;;;;;;;26.03;31.42;94733.25;4966439;28;20045;-36
2020/12/07 03:08:08;;;;;;;18.33;10.57;;;;;;;26.04;31.43;94741.94;4970875;28;20039;-34
2020/12/07 03:10:34;;;;;;;15.15;10.25;;;;;;;26.02;31.51;94752.59;4960635;28;20045;-34
2020/12/07 03:13:00;;;;;;;15.70;10.48;;;;;;;26.02;31.38;94751.75;4965481;28;20039;-35
2020/12/07 03:15:25;;;;;;;19.33;10.75;;;;;;;26.02;31.87;94749.97;4961810;28;20500;-37
2020/12/07 03:17:51;;;;;;;18.08;10.95;;;;;;;26.02;31.41;94755.22;4962216;28;20120;-34
2020/12/07 03:20:17;;;;;;;15.25;10.35;;;;;;;26.02;31.52;94764.88;4959160;28;20051;-34
2020/12/07 03:22:43;;;;;;;16.00;9.75;;;;;;;26.02;31.53;94767.50;4975553;28;20034;-36
2020/12/07 03:25:09;;;;;;;16.48;10.55;;;;;;;26.02;31.35;94770.13;4955887;28;20094;-35
2020/12/07 03:27:35;;;;;;;14.13;9.77;;;;;;;26.01;31.35;94785.03;4948279;28;20038;-35
2020/12/07 03:30:00;;;;;;;16.33;10.07;;;;;;;26.01;31.37;94777.16;4958933;28;20047;-34
2020/12/07 03:32:25;;;;;;;13.93;9.40;;;;;;;26.01;31.62;94789.47;4965811;28;20049;-34
2020/12/07 03:34:51;;;;;;;14.75;9.65;;;;;;;26.01;31.40;94790.28;4960837;28;20397;-34
2020/12/07 03:37:18;;;;;;;14.85;9.93;;;;;;;26.01;31.32;94789.47;4962690;28;20049;-33
2020/12/07 03:39:43;;;;;;;15.85;10.10;;;;;;;25.97;31.43;94778.38;4965178;28;20039;-35
2020/12/07 03:42:09;;;;;;;15.48;10.20;;;;;;;25.96;31.56;94781.97;4964161;28;20035;-34
2020/12/07 03:44:35;;;;;;;16.45;10.15;;;;;;;25.94;31.59;94789.16;4962295;28;20043;-35
2020/12/07 03:47:01;;;;;;;16.00;9.93;;;;;;;25.85;31.48;94774.22;4954908;28;20050;-35
2020/12/07 03:49:27;;;;;;;16.23;10.23;;;;;;;25.91;31.62;94790.25;4961078;28;20030;-34
2020/12/07 03:51:52;;;;;;;16.10;9.25;;;;;;;25.89;31.57;94786.91;4967463;28;20047;-32
2020/12/07 03:54:18;;;;;;;17.23;10.18;;;;;;;25.88;31.63;94784.41;4956436;28;20046;-35
2020/12/07 03:56:45;;;;;;;14.52;9.95;;;;;;;25.86;31.63;94787.19;4960040;28;20050;-34
2020/12/07 03:59:11;;;;;;;15.82;9.05;;;;;;;25.85;31.68;94785.50;4955307;28;20047;-34
2020/12/07 04:01:37;;;;;;;13.63;9.68;;;;;;;25.85;31.75;94787.31;4960164;28;20045;-34
2020/12/07 04:04:06;;;;;;;13.88;9.15;;;;;;;25.85;31.66;94785.50;4957787;28;20104;-33
2020/12/07 04:06:35;;;;;;;14.60;8.95;;;;;;;25.85;31.62;94785.50;4961694;28;20508;-34
2020/12/07 04:09:00;;;;;;;14.25;9.35;;;;;;;25.86;31.48;94781.09;4965943;28;20031;-34
2020/12/07 04:11:26;;;;;;;15.48;9.40;;;;;;;25.86;31.60;94787.19;4965761;28;20054;-32
2020/12/07 04:13:52;;;;;;;12.60;9.10;;;;;;;25.88;31.48;94789.66;4962276;28;20464;-34
2020/12/07 04:16:18;;;;;;;13.30;9.35;;;;;;;25.88;31.53;94789.66;4962885;28;20039;-34
2020/12/07 04:18:43;;;;;;;11.82;8.20;;;;;;;25.88;31.53;94798.38;4966749;28;20043;-34
2020/12/07 04:21:08;;;;;;;13.52;9.43;;;;;;;25.88;31.61;94800.16;4965058;28;20075;-35
2020/12/07 04:23:34;;;;;;;13.30;8.77;;;;;;;25.89;31.49;94801.84;4961613;28;20063;-35
2020/12/07 04:26:00;;;;;;;12.45;8.50;;;;;;;25.89;31.54;94799.22;4961276;28;20042;-34
2020/12/07 04:28:26;;;;;;;13.10;8.52;;;;;;;25.90;31.38;94803.50;4964488;28;20042;-36
2020/12/07 04:30:52;;;;;;;12.20;8.70;;;;;;;25.90;31.52;94809.56;4956016;28;20054;-34
2020/12/07 04:33:17;;;;;;;12.38;9.02;;;;;;;25.90;31.36;94806.94;4967795;28;20428;-34
2020/12/07 04:35:42;;;;;;;11.73;8.30;;;;;;;25.91;31.44;94811.25;4934347;28;20480;-34
2020/12/07 04:38:08;;;;;;;11.23;8.30;;;;;;;25.92;31.42;94812.06;4968214;28;22993;-35
2020/12/07 04:40:34;;;;;;;13.57;8.95;;;;;;;25.93;31.39;94816.38;4961699;28;20221;-34
2020/12/07 04:43:00;;;;;;;12.43;8.00;;;;;;;25.93;31.38;94821.63;4959004;28;20057;-36
2020/12/07 04:45:26;;;;;;;13.40;7.85;;;;;;;25.94;31.37;94823.28;4958406;28;20046;-34
2020/12/07 04:47:51;;;;;;;12.20;8.32;;;;;;;25.93;31.26;94814.56;4979182;28;20089;-34
2020/12/07 04:50:17;;;;;;;11.48;7.85;;;;;;;25.94;31.32;94816.22;4957368;28;20664;-33
2020/12/07 04:52:43;;;;;;;13.02;7.93;;;;;;;25.93;31.19;94814.56;4959890;28;20055;-34
2020/12/07 04:55:08;;;;;;;10.63;7.32;;;;;;;25.93;31.14;94817.19;4956474;28;20042;-34
2020/12/07 04:57:34;;;;;;;10.57;7.28;;;;;;;25.94;31.42;94823.28;4962191;28;20054;-36
2020/12/07 05:00:00;;;;;;;12.93;7.90;;;;;;;25.79;31.25;94800.00;4949803;28;20050;-34
2020/12/07 05:02:26;;;;;;;10.98;7.53;;;;;;;25.93;31.13;94824.25;4949927;28;20130;-34
2020/12/07 05:04:53;;;;;;;12.27;7.38;;;;;;;25.94;31.08;94825.91;4964436;28;20473;-34
2020/12/07 05:07:19;;;;;;;10.25;7.25;;;;;;;25.94;31.30;94823.28;4955898;28;20043;-32
2020/12/07 05:09:45;;;;;;;10.43;7.18;;;;;;;25.93;31.11;94824.25;4966251;28;20106;-33
2020/12/07 05:12:27;;;;;;;10.93;7.28;;;;;;;25.92;31.14;94822.56;4964029;28;20046;-33
2020/12/07 05:14:56;;;;;;;11.85;7.03;;;;;;;25.92;31.12;94822.56;4952519;28;20406;-32
2020/12/07 05:17:22;;;;;;;10.05;6.88;;;;;;;25.91;31.02;94820.91;4960724;28;20697;-33
2020/12/07 05:19:47;;;;;;;11.38;6.78;;;;;;;25.91;31.13;94820.91;4956098;28;20061;-33
2020/12/07 05:22:16;;;;;;;12.30;6.72;;;;;;;25.91;30.99;94823.53;4959860;28;20038;-35
2020/12/07 05:24:51;;;;;;;9.80;6.53;;;;;;;25.91;31.23;94831.41;4952725;28;20061;-33
2020/12/07 05:27:18;;;;;;;9.88;6.72;;;;;;;25.91;31.04;94829.63;4958952;28;20382;-33
2020/12/07 05:32:30;;;;;;;9.82;6.60;;;;;;;25.89;31.01;94828.91;4937718;28;20046;-34
2020/12/07 05:34:59;;;;;;;10.60;6.93;;;;;;;25.90;31.13;94821.88;4975443;28;20463;-33
2020/12/07 05:37:24;;;;;;;9.60;6.70;;;;;;;25.90;31.00;94824.50;4965050;28;20043;-34
2020/12/07 05:39:50;;;;;;;8.80;5.85;;;;;;;25.90;31.22;94824.50;4962297;28;20041;-33
2020/12/07 05:42:16;;;;;;;10.98;6.53;;;;;;;25.88;31.08;94816.75;4959348;28;20047;-33
2020/12/07 05:44:42;;;;;;;9.65;6.85;;;;;;;25.88;31.11;94826.41;4965346;28;20041;-33
2020/12/07 05:47:07;;;;;;;9.45;6.53;;;;;;;25.87;31.00;94828.22;4957994;28;20117;-33
2020/12/07 05:49:33;;;;;;;9.38;6.65;;;;;;;25.87;31.17;94835.25;4961760;28;20141;-34
2020/12/07 05:52:04;;;;;;;11.05;6.70;;;;;;;25.86;31.08;94834.44;4958542;28;20514;-35
2020/12/07 05:54:30;;;;;;;9.52;6.88;;;;;;;25.86;31.22;94836.22;4959270;28;20041;-33
2020/12/07 05:56:58;;;;;;;9.90;6.30;;;;;;;25.85;31.19;94842.44;4957503;28;20043;-33
2020/12/07 05:59:30;;;;;;;9.68;6.70;;;;;;;25.85;31.25;94837.19;4960189;28;20068;-33
2020/12/07 06:01:58;;;;;;;9.10;6.35;;;;;;;25.83;31.26;94843.38;4957273;28;20047;-33
2020/12/07 06:04:25;;;;;;;8.43;6.45;;;;;;;25.84;31.14;94841.59;4967178;28;20070;-33
2020/12/07 06:06:50;;;;;;;9.43;6.38;;;;;;;25.85;31.19;94842.44;4966389;28;20113;-33
2020/12/07 06:09:20;;;;;;;10.52;6.75;;;;;;;25.85;31.15;94837.19;4949624;28;20489;-33
2020/12/07 06:11:53;;;;;;;13.07;6.03;;;;;;;25.85;31.29;94845.06;4946946;28;20038;-32
2020/12/07 06:14:19;;;;;;;11.55;6.30;;;;;;;25.84;31.15;94852.09;4945577;28;20156;-32
2020/12/07 06:16:44;;;;;;;9.30;6.53;;;;;;;25.85;31.17;94852.91;4941358;28;20779;-35
2020/12/07 06:19:15;;;;;;;9.63;6.15;;;;;;;25.85;31.26;94858.16;4979894;28;20046;-33
2020/12/07 06:21:56;;;;;;;9.50;5.97;;;;;;;25.85;31.17;94858.16;4962239;28;20515;-33
2020/12/07 06:24:22;;;;;;;8.75;5.57;;;;;;;25.85;31.25;94858.16;4963905;28;20117;-33
2020/12/07 06:27:00;;;;;;;8.90;6.40;;;;;;;25.85;31.25;94858.97;4962581;28;20105;-35
2020/12/07 06:29:26;;;;;;;8.43;6.00;;;;;;;25.86;31.04;94859.81;4959803;28;20038;-34
2020/12/07 06:31:52;;;;;;;10.02;6.18;;;;;;;25.85;31.29;94845.06;4958259;28;20571;-34
2020/12/07 06:34:18;;;;;;;9.32;6.03;;;;;;;25.85;31.27;94850.31;4963525;28;20043;-32
2020/12/07 06:36:44;;;;;;;10.23;6.07;;;;;;;25.83;31.22;94851.22;4947329;28;20042;-33
2020/12/07 06:39:10;;;;;;;8.95;5.93;;;;;;;25.83;31.22;94859.09;4962759;28;20034;-34
2020/12/07 06:41:40;;;;;;;6.78;5.30;;;;;;;25.83;31.19;94869.59;4961710;28;20066;-34
2020/12/07 06:44:07;;;;;;;8.98;5.70;;;;;;;25.83;31.25;94866.97;4959991;28;20142;-33
2020/12/07 06:49:37;;;;;;;7.50;5.22;;;;;;;25.78;31.44;94895.41;4971312;28;20166;-33
2020/12/07 06:52:10;;;;;;;7.40;5.38;;;;;;;25.76;31.49;94893.88;4962971;28;20037;-33
2020/12/07 06:57:25;;;;;;;10.18;6.03;;;;;;;25.76;31.34;94896.50;4963013;28;20459;-33
2020/12/07 06:59:59;;;;;;;8.35;5.55;;;;;;;25.76;31.54;94906.97;4960873;28;20031;-34
2020/12/07 07:02:25;;;;;;;7.93;5.57;;;;;;;25.74;31.53;94903.66;4964006;28;20138;-32
2020/12/07 07:04:52;;;;;;;7.72;5.25;;;;;;;25.74;31.39;94906.28;4967121;28;20405;-33
2020/12/07 07:07:24;;;;;;;7.93;5.30;;;;;;;25.73;31.52;94905.44;4962695;28;20054;-33
2020/12/07 07:09:50;;;;;;;7.85;5.65;;;;;;;25.74;31.42;94919.41;4969612;28;20077;-33
2020/12/07 07:12:16;;;;;;;6.97;5.15;;;;;;;25.73;31.58;94918.56;4966214;28;20034;-33
2020/12/07 07:14:42;;;;;;;7.45;5.40;;;;;;;25.73;31.36;94918.56;4965192;28;20046;-33
2020/12/07 07:17:09;;;;;;;7.30;5.47;;;;;;;25.71;31.62;94920.50;4963191;28;20051;-34
2020/12/07 07:19:35;;;;;;;6.10;4.97;;;;;;;25.70;31.52;94926.69;4962669;28;20705;-34
2020/12/07 07:22:00;;;;;;;7.53;5.00;;;;;;;25.67;31.53;94924.31;4969640;28;20046;-33
2020/12/07 07:24:38;;;;;;;6.65;4.78;;;;;;;25.68;31.27;94928.59;4953560;28;20862;-33
2020/12/07 07:27:56;;;;;;;32.08;5.90;;;;;;;25.63;31.52;94922.91;4960670;28;20039;-33
2020/12/07 07:29:49;;;;;;;9.70;5.03;;;;;;;25.63;31.43;94923.72;4958164;28;20109;-33
2020/12/07 07:32:14;;;;;;;18.15;4.90;;;;;;;25.62;31.38;94926.50;4949643;28;20058;-32
2020/12/07 07:34:44;;;;;;;9.40;5.07;;;;;;;25.63;31.35;94930.78;4942693;28;20038;-32
2020/12/07 07:37:10;;;;;;;10.68;4.75;;;;;;;25.64;31.36;94930.66;4960363;28;20719;-33
2020/12/07 07:39:36;;;;;;;7.43;4.70;;;;;;;25.65;31.41;94934.94;4958692;28;20602;-34
2020/12/07 07:42:12;;;;;;;6.38;4.28;;;;;;;25.67;31.37;94933.00;4958886;28;20393;-32
2020/12/07 07:44:45;;;;;;;6.32;4.60;;;;;;;25.68;31.32;94934.69;4958431;28;20046;-31
2020/12/07 07:47:17;;;;;;;12.82;3.88;;;;;;;25.65;30.42;94932.31;4942546;28;20039;-33
2020/12/07 07:53:05;;;;;;;8.48;4.43;;;;;;;25.75;30.98;94937.66;4963858;28;20046;-32
2020/12/07 08:15:46;;;;;;;7.10;4.43;;;;;;;25.88;31.75;94968.09;4957335;28;20081;-33
2020/12/07 08:17:54;;;;;;;8.35;4.45;;;;;;;25.90;31.75;94966.19;4964545;28;20269;-35
2020/12/07 08:20:22;;;;;;;10.82;4.32;;;;;;;25.92;31.66;94959.03;4957339;28;20050;-34
2020/12/07 08:23:01;;;;;;;6.63;4.97;;;;;;;25.93;31.64;94966.78;4955033;28;20047;-34
2020/12/07 08:25:45;;;;;;;6.72;4.57;;;;;;;25.95;31.60;94969.28;4956925;28;20137;-34
2020/12/07 08:28:34;;;;;;;11.13;4.88;;;;;;;25.96;31.45;94981.44;4957361;28;20039;-34
2020/12/07 08:31:00;;;;;;;6.18;4.25;;;;;;;25.95;31.19;94979.78;4954057;28;20071;-35
2020/12/07 08:33:26;;;;;;;7.10;4.82;;;;;;;25.96;31.53;94981.44;4954608;28;20031;-34
2020/12/07 08:35:56;;;;;;;5.97;4.50;;;;;;;25.96;31.41;94981.44;4956259;28;20054;-33
2020/12/07 08:38:33;;;;;;;7.18;4.38;;;;;;;25.96;31.59;94978.81;4957357;28;20049;-34
2020/12/07 08:41:23;;;;;;;7.00;4.45;;;;;;;25.97;31.46;94980.47;4958060;28;20044;-37
2020/12/07 08:43:50;;;;;;;6.68;3.90;;;;;;;25.98;31.41;94979.53;4957299;28;20058;-33
2020/12/07 08:46:18;;;;;;;6.13;4.00;;;;;;;25.98;31.41;94974.28;4958388;28;20078;-34
2020/12/07 08:48:44;;;;;;;5.85;4.20;;;;;;;26.00;31.49;94982.84;4954957;28;20042;-33
2020/12/07 08:51:10;;;;;;;6.22;4.15;;;;;;;26.02;31.60;94978.31;4954470;28;20034;-33
2020/12/07 08:53:37;;;;;;;6.20;4.18;;;;;;;26.02;31.59;94985.34;4962499;28;20097;-34
2020/12/07 08:56:07;;;;;;;6.03;4.32;;;;;;;26.02;31.44;94986.19;4966043;28;20043;-34
2020/12/07 08:58:33;;;;;;;18.55;3.30;;;;;;;26.00;28.42;94992.53;4963536;28;20039;-33
2020/12/07 09:01:00;;;;;;;14.15;3.33;;;;;;;25.97;28.85;94993.59;4966335;28;20038;-34
2020/12/07 09:03:27;;;;;;;7.18;4.20;;;;;;;25.98;31.13;95000.53;4954912;28;20038;-33
2020/12/07 09:05:54;;;;;;;6.78;4.28;;;;;;;25.98;31.38;94995.28;4956489;28;20089;-34
2020/12/07 09:08:19;;;;;;;7.75;4.10;;;;;;;26.00;31.41;94998.59;4959998;28;20416;-32
2020/12/07 09:10:46;;;;;;;11.23;4.55;;;;;;;25.98;31.62;95016.28;4955272;28;20043;-33
2020/12/07 09:13:12;;;;;;;8.95;4.05;;;;;;;25.97;31.52;95004.09;4957912;28;21879;-34
2020/12/07 09:15:37;;;;;;;6.43;3.60;;;;;;;25.96;31.89;95005.03;4957246;28;20055;-35
2020/12/07 09:18:03;;;;;;;6.25;3.55;;;;;;;25.97;31.81;95009.31;4957404;28;20058;-34
2020/12/07 09:20:29;;;;;;;8.98;4.10;;;;;;;25.99;31.78;95015.31;4956121;28;20049;-35
2020/12/07 09:22:55;;;;;;;6.68;3.45;;;;;;;25.95;25.45;95016.50;4954988;28;20042;-34
2020/12/07 09:25:20;;;;;;;10.98;4.25;;;;;;;25.63;22.62;95017.34;4961977;28;20050;-34
2020/12/07 09:27:46;;;;;;;5.70;4.20;;;;;;;25.14;22.03;95017.66;4978120;28;20057;-33
2020/12/07 09:30:13;;;;;;;4.35;3.58;;;;;;;24.80;24.46;95032.38;4965068;28;20075;-33
2020/12/07 09:32:40;;;;;;;5.97;3.28;;;;;;;24.68;24.91;95030.72;4961300;28;20039;-33
2020/12/07 09:35:09;;;;;;;7.40;3.20;;;;;;;24.66;25.80;95032.59;4950548;28;20100;-33
2020/12/07 09:37:38;;;;;;;11.40;3.20;;;;;;;24.71;27.03;95033.09;4950339;28;20089;-34
2020/12/07 09:40:04;;;;;;;5.20;3.17;;;;;;;24.77;27.72;95027.38;4947538;28;20049;-34
2020/12/07 09:42:31;;;;;;;4.45;2.97;;;;;;;24.83;28.43;95035.72;4955858;28;20041;-35
2020/12/07 09:44:57;;;;;;;4.00;2.90;;;;;;;24.88;28.43;95033.59;4953889;28;20062;-34
2020/12/07 09:47:25;;;;;;;8.00;3.30;;;;;;;24.94;28.66;95042.78;4954936;28;20133;-34
2020/12/07 09:49:51;;;;;;;4.13;2.70;;;;;;;25.00;28.65;95043.16;4956549;28;20154;-34
2020/12/07 09:52:17;;;;;;;3.80;3.00;;;;;;;25.04;28.85;95049.81;4951332;28;20042;-33
2020/12/07 09:54:44;;;;;;;4.57;2.80;;;;;;;25.11;28.84;95055.41;4949635;28;20986;-34
2020/12/07 09:57:10;;;;;;;5.57;3.13;;;;;;;25.18;28.90;95050.53;4954405;28;20051;-34
2020/12/07 09:59:36;;;;;;;5.07;2.90;;;;;;;25.23;29.30;95043.13;4954227;28;20043;-34
2020/12/07 10:02:02;;;;;;;4.15;2.58;;;;;;;25.28;29.26;95040.97;4952126;28;20256;-34
2020/12/07 10:04:28;;;;;;;7.00;2.80;;;;;;;25.33;29.19;95042.41;4955529;28;20141;-34
2020/12/07 10:06:54;;;;;;;5.05;2.95;;;;;;;25.34;28.55;95036.19;4953678;28;21176;-33
2020/12/07 10:09:20;;;;;;;4.05;2.58;;;;;;;25.38;29.35;95037.63;4957091;28;20069;-36
2020/12/07 10:11:47;;;;;;;5.22;2.80;;;;;;;25.41;29.71;95035.63;4957196;28;20046;-35
2020/12/07 10:14:14;;;;;;;5.78;2.67;;;;;;;25.44;29.73;95031.91;4954327;28;20049;-33
2020/12/07 10:16:43;;;;;;;5.18;2.47;;;;;;;25.28;30.12;95020.00;4947425;28;20039;-40
2020/12/07 10:19:09;;;;;;;6.43;2.80;;;;;;;25.08;30.85;95018.09;4954874;28;20043;-36
2020/12/07 10:21:34;;;;;;;4.20;2.75;;;;;;;24.93;31.02;95020.97;4954023;28;22572;-40
2020/12/07 10:24:01;;;;;;;7.85;2.90;;;;;;;24.86;31.17;95022.44;4956671;28;20047;-35
2020/12/07 10:26:27;;;;;;;5.40;2.83;;;;;;;24.86;31.46;95014.56;4964384;28;20545;-39
2020/12/07 10:28:54;;;;;;;7.50;3.17;;;;;;;24.96;31.25;95009.41;4968230;28;20035;-38
2020/12/07 10:31:20;;;;;;;4.55;3.20;;;;;;;25.10;31.19;95010.97;4960975;28;20035;-38
2020/12/07 10:33:46;;;;;;;4.28;2.72;;;;;;;25.27;30.90;95018.34;4964355;28;20307;-35
2020/12/07 10:36:12;;;;;;;5.15;2.65;;;;;;;25.46;30.89;95016.88;4959240;28;20039;-35
2020/12/07 10:38:39;;;;;;;6.78;2.53;;;;;;;25.64;30.62;95016.38;4956291;28;20176;-34
2020/12/07 10:41:04;;;;;;;3.65;2.63;;;;;;;25.77;30.65;95019.69;4954284;28;20050;-34
2020/12/07 10:43:31;;;;;;;6.25;2.90;;;;;;;25.92;30.34;95022.00;4958723;28;20113;-37
2020/12/07 10:45:56;;;;;;;2.97;2.42;;;;;;;26.06;30.38;95021.72;4963743;28;20038;-37
2020/12/07 10:48:22;;;;;;;4.75;2.83;;;;;;;26.19;30.14;95018.91;4960829;28;20040;-36
2020/12/07 10:50:48;;;;;;;5.32;2.38;;;;;;;26.34;30.03;95016.00;4962339;28;20042;-38
2020/12/07 10:53:14;;;;;;;4.15;2.65;;;;;;;26.49;29.62;95019.13;4955092;28;20148;-36
2020/12/07 10:55:42;;;;;;;4.25;2.40;;;;;;;26.63;29.71;95025.84;4957572;28;20046;-39
2020/12/07 10:58:08;;;;;;;3.33;2.47;;;;;;;26.73;29.27;95020.63;4955948;28;20218;-35
2020/12/07 11:00:33;;;;;;;5.00;2.60;;;;;;;26.76;29.21;95024.81;4953189;28;20502;-36
2020/12/07 11:02:59;;;;;;;5.15;2.70;;;;;;;26.80;29.22;95031.44;4953188;28;20521;-37
2020/12/07 11:05:25;;;;;;;3.58;2.33;;;;;;;26.81;29.20;95028.69;4970714;28;22087;-36
2020/12/07 11:07:53;;;;;;;4.78;2.47;;;;;;;26.85;29.24;95024.84;4950667;28;20067;-39
2020/12/07 11:10:19;;;;;;;5.10;2.50;;;;;;;26.92;28.98;95029.59;4953119;28;20534;-36
2020/12/07 11:12:49;;;;;;;7.13;2.53;;;;;;;26.93;29.01;95037.31;4968446;28;20046;-35
2020/12/07 11:15:15;;;;;;;6.05;2.25;;;;;;;26.94;28.91;95039.03;4956475;28;20136;-35
2020/12/07 11:17:44;;;;;;;6.82;2.50;;;;;;;26.95;28.95;95045.09;4954579;28;20715;-36
2020/12/07 11:20:09;;;;;;;4.22;2.33;;;;;;;26.98;28.93;95044.84;4953491;28;20398;-35
2020/12/07 11:22:35;;;;;;;4.10;2.60;;;;;;;27.00;28.81;95037.66;4963289;28;20113;-35
2020/12/07 11:25:01;;;;;;;6.85;2.25;;;;;;;27.00;28.89;95040.28;4961994;28;20050;-35
2020/12/07 11:27:26;;;;;;;3.08;2.30;;;;;;;26.96;28.99;95042.34;4954014;28;20065;-36
2020/12/07 11:29:52;;;;;;;5.95;2.33;;;;;;;26.94;29.18;95030.28;4958387;28;20587;-37
2020/12/07 11:32:18;;;;;;;3.40;2.30;;;;;;;26.94;29.20;95027.66;4954293;28;20737;-35
2020/12/07 11:34:44;;;;;;;3.33;2.08;;;;;;;26.84;29.23;95012.66;4951507;28;20438;-35
2020/12/07 11:37:10;;;;;;;4.43;2.30;;;;;;;26.97;29.33;95027.44;4961644;28;20041;-38
2020/12/07 11:42:18;;;;;;;2.75;2.13;;;;;;;27.00;29.17;95027.13;4952365;28;20560;-36
2020/12/07 11:44:45;;;;;;;3.03;2.13;;;;;;;27.03;29.16;95026.88;4957009;28;20031;-37
2020/12/07 11:47:12;;;;;;;4.63;2.20;;;;;;;27.03;29.15;95042.66;4953122;28;20047;-37
2020/12/07 11:49:37;;;;;;;4.40;2.00;;;;;;;27.03;29.33;95029.50;4955994;28;20126;-35
2020/12/07 11:52:03;;;;;;;2.80;2.05;;;;;;;27.05;29.26;95034.63;4959377;28;20054;-38
2020/12/07 11:54:29;;;;;;;4.68;2.05;;;;;;;27.05;29.15;95032.00;4963676;28;20175;-35
2020/12/07 11:56:55;;;;;;;2.83;2.05;;;;;;;27.04;29.30;95033.78;4960616;28;20043;-36
2020/12/07 11:59:20;;;;;;;3.40;2.40;;;;;;;27.07;29.21;95033.53;4953185;28;20034;-36